Time;durP1;ratioP1;P1;durP2;ratioP2;P2;SDS_P1;SDS_P2;PMS_P1;PMS_P2;Temp;Humidity;BMP_temperature;BMP_pressure;BME280_temperature;BME280_humidity;BME280_pressure;Samples;Min_cycle;Max_cycle;Signal;HPM_P1;HPM_P2
2022/07/02 20:39:26;;;;;;;2.45;0.82;;;19.40;63.60;;;;;;5061960;27;1665846;-87
2022/07/02 20:41:53;;;;;;;1.88;0.70;;;19.40;63.80;;;;;;5105011;28;20048;-87
2022/07/02 20:44:20;;;;;;;3.72;1.02;;;19.40;64.00;;;;;;5105271;28;20040;-87
2022/07/02 20:46:47;;;;;;;1.92;0.98;;;19.40;64.10;;;;;;5109844;28;20462;-87
2022/07/02 20:49:32;;;;;;;3.10;1.00;;;19.40;64.10;;;;;;5107770;28;20124;-87
2022/07/02 20:52:18;;;;;;;1.80;0.75;;;19.40;64.10;;;;;;5106659;28;20039;-87
2022/07/02 20:55:03;;;;;;;3.03;0.95;;;19.40;64.00;;;;;;5107002;28;20051;-87
2022/07/02 20:57:48;;;;;;;6.00;1.05;;;19.40;63.90;;;;;;5104097;28;20530;-87
2022/07/02 21:00:33;;;;;;;1.70;0.70;;;19.40;63.90;;;;;;5105159;28;20407;-87
2022/07/02 21:02:59;;;;;;;3.20;1.10;;;19.40;63.80;;;;;;5105119;28;20051;-86
2022/07/02 21:05:26;;;;;;;2.33;0.82;;;19.40;63.80;;;;;;5104749;28;20040;-86
2022/07/02 21:07:54;;;;;;;4.45;0.90;;;19.40;63.70;;;;;;5107866;28;20058;-87
2022/07/02 21:10:25;;;;;;;2.42;0.73;;;19.40;63.70;;;;;;5108033;28;20047;-86
2022/07/02 21:12:55;;;;;;;2.92;0.82;;;19.40;63.70;;;;;;5104758;28;20048;-88
2022/07/02 21:15:22;;;;;;;2.38;0.90;;;19.40;63.80;;;;;;5104393;28;20044;-86
2022/07/02 21:17:49;;;;;;;2.65;0.88;;;19.30;63.80;;;;;;5104773;28;20050;-87
2022/07/02 21:20:16;;;;;;;3.00;1.10;;;19.30;63.80;;;;;;5104939;28;20052;-87
2022/07/02 21:22:43;;;;;;;3.85;1.13;;;19.30;63.90;;;;;;5101566;28;20043;-87
2022/07/02 21:25:10;;;;;;;2.88;0.80;;;19.30;63.90;;;;;;5105153;28;20048;-87
2022/07/02 21:27:37;;;;;;;2.38;0.70;;;19.30;64.00;;;;;;5103945;28;20051;-87
2022/07/02 21:30:22;;;;;;;1.48;0.60;;;19.30;64.00;;;;;;5104109;28;20051;-87
2022/07/02 21:33:06;;;;;;;2.72;0.93;;;19.20;64.10;;;;;;5104754;28;20039;-87
2022/07/02 21:35:33;;;;;;;2.42;1.00;;;19.20;64.10;;;;;;5097481;28;20133;-87
2022/07/02 21:38:01;;;;;;;2.53;0.90;;;19.10;64.10;;;;;;5114428;28;20063;-87
2022/07/02 21:40:45;;;;;;;2.22;0.90;;;19.10;64.20;;;;;;5128992;28;20096;-87
2022/07/02 21:43:12;;;;;;;3.33;1.00;;;19.10;64.20;;;;;;5124199;28;20054;-86
2022/07/02 21:45:39;;;;;;;2.75;0.80;;;19.00;64.30;;;;;;5124544;28;20076;-87
2022/07/02 21:48:06;;;;;;;4.15;1.10;;;19.00;64.30;;;;;;5126001;28;20089;-88
2022/07/02 21:50:33;;;;;;;2.80;0.90;;;19.00;64.40;;;;;;5112102;28;20546;-86
2022/07/02 21:52:59;;;;;;;3.05;1.05;;;18.90;64.40;;;;;;5113137;28;20532;-86
2022/07/02 21:55:32;;;;;;;1.75;0.77;;;18.90;64.40;;;;;;5113336;28;20050;-86
2022/07/02 21:57:59;;;;;;;4.20;1.08;;;18.90;64.50;;;;;;5110438;28;20108;-86
2022/07/02 22:00:28;;;;;;;2.40;0.88;;;18.90;64.50;;;;;;5110347;28;20044;-87
2022/07/02 22:02:55;;;;;;;2.97;0.80;;;18.90;64.60;;;;;;5110537;28;20467;-87
2022/07/02 22:05:22;;;;;;;3.50;1.17;;;18.90;64.60;;;;;;5110901;28;20052;-87
2022/07/02 22:07:49;;;;;;;2.55;0.73;;;18.80;64.60;;;;;;5114686;28;20052;-86
2022/07/02 22:10:17;;;;;;;2.58;0.82;;;18.90;64.70;;;;;;5102373;28;20044;-86
2022/07/02 22:12:44;;;;;;;2.20;0.90;;;18.80;64.70;;;;;;5107298;28;20134;-86
2022/07/02 22:15:11;;;;;;;4.15;1.13;;;18.80;64.70;;;;;;5110053;28;20039;-86
2022/07/02 22:17:39;;;;;;;2.55;0.80;;;18.70;64.80;;;;;;5092518;28;20083;-86
2022/07/02 22:23:29;;;;;;;3.47;0.88;;;18.60;64.90;;;;;;5095451;28;20043;-86
2022/07/02 22:26:13;;;;;;;4.80;1.17;;;18.60;65.00;;;;;;5094643;28;20427;-86
2022/07/02 22:28:40;;;;;;;2.63;0.90;;;18.50;65.00;;;;;;5113878;28;20060;-87
2022/07/02 22:31:07;;;;;;;2.72;0.90;;;18.50;65.10;;;;;;5110256;28;20044;-86
2022/07/02 22:33:34;;;;;;;2.30;0.80;;;18.40;65.10;;;;;;5110064;28;20503;-86
2022/07/02 22:36:01;;;;;;;4.60;0.80;;;18.40;65.20;;;;;;5109987;28;20044;-87
2022/07/02 22:38:28;;;;;;;3.17;1.00;;;18.40;65.30;;;;;;5109275;28;20058;-86
2022/07/02 22:40:56;;;;;;;2.70;0.80;;;18.40;65.40;;;;;;5110716;28;20047;-86
2022/07/02 22:43:23;;;;;;;2.58;0.90;;;18.40;65.40;;;;;;5111308;28;20047;-85
2022/07/02 22:45:51;;;;;;;2.92;0.90;;;18.40;65.50;;;;;;5110486;28;20073;-85
2022/07/02 22:48:18;;;;;;;3.05;0.95;;;18.30;65.60;;;;;;5110461;28;20050;-86
2022/07/02 22:50:45;;;;;;;5.45;1.20;;;18.30;65.60;;;;;;5111211;28;20044;-86
2022/07/02 22:53:12;;;;;;;2.55;0.90;;;18.30;65.70;;;;;;5096626;28;20447;-87
2022/07/02 22:55:39;;;;;;;3.30;0.77;;;18.30;65.70;;;;;;5114090;28;20047;-86
2022/07/02 22:58:23;;;;;;;2.15;0.65;;;18.20;65.80;;;;;;5097955;28;20457;-86
2022/07/02 23:01:07;;;;;;;;;;;18.20;65.90;;;;;;5112707;28;20530;-87
2022/07/02 23:03:51;;;;;;;;;;;18.20;65.90;;;;;;5113765;28;19915;-86
2022/07/02 23:06:36;;;;;;;;;;;18.20;66.00;;;;;;5113728;28;19915;-86
2022/07/02 23:09:20;;;;;;;;;;;18.10;66.10;;;;;;5109537;28;19919;-87
2022/07/02 23:12:04;;;;;;;;;;;18.10;66.10;;;;;;5099707;28;20279;-86
2022/07/02 23:14:49;;;;;;;;;;;18.10;66.20;;;;;;5099355;28;20385;-86
2022/07/02 23:17:34;;;;;;;;;;;18.10;66.20;;;;;;5081786;28;20009;-86
2022/07/02 23:20:18;;;;;;;;;;;18.10;66.30;;;;;;5081330;28;19919;-86
2022/07/02 23:23:02;;;;;;;;;;;18.00;66.30;;;;;;5110980;28;19915;-86
2022/07/02 23:25:47;;;;;;;;;;;18.00;66.30;;;;;;5094514;28;19915;-86
2022/07/02 23:28:14;;;;;;;;;;;18.00;66.40;;;;;;5107895;28;20346;-86
2022/07/02 23:30:40;;;;;;;;;;;18.00;66.40;;;;;;5103782;28;20341;-86
2022/07/02 23:33:07;;;;;;;;;;;17.90;66.40;;;;;;5099259;28;19965;-86
2022/07/02 23:35:51;;;;;;;;;;;17.90;66.50;;;;;;5084027;28;19957;-86
2022/07/02 23:38:36;;;;;;;;;;;17.90;66.50;;;;;;5094970;28;20409;-86
2022/07/02 23:41:05;;;;;;;;;;;17.90;66.60;;;;;;5093960;28;20414;-86
2022/07/02 23:43:33;;;;;;;;;;;17.90;66.60;;;;;;5112270;28;19934;-86
2022/07/02 23:45:59;;;;;;;;;;;17.90;66.60;;;;;;5098011;28;19977;-86
2022/07/02 23:48:43;;;;;;;;;;;17.80;66.60;;;;;;5095961;28;19992;-86
2022/07/02 23:51:28;;;;;;;;;;;17.80;66.70;;;;;;5095874;28;19915;-87
2022/07/02 23:54:12;;;;;;;;;;;17.80;66.70;;;;;;5095511;28;19962;-86
2022/07/02 23:56:42;;;;;;;;;;;17.70;66.70;;;;;;5095839;28;19924;-86
2022/07/02 23:59:09;;;;;;;;;;;17.70;66.80;;;;;;5076327;28;20455;-86
